Time;durP1;ratioP1;P1;durP2;ratioP2;P2;SDS_P1;SDS_P2;PMS_P1;PMS_P2;Temp;Humidity;BMP_temperature;BMP_pressure;BME280_temperature;BME280_humidity;BME280_pressure;Samples;Min_cycle;Max_cycle;Signal;HPM_P1;HPM_P2
2022/07/10 00:13:09;;;;;;;4.18;2.10;;;;;;;14.98;67.75;100308.59;30988383;28;97352;-65
2022/07/10 00:28:11;;;;;;;3.05;1.90;;;;;;;14.81;68.59;100306.22;30986265;28;96628;-64
2022/07/10 00:43:11;;;;;;;3.03;2.07;;;;;;;14.48;69.17;100300.56;30984309;28;96973;-64
2022/07/10 00:58:12;;;;;;;5.53;2.65;;;;;;;14.20;70.25;100295.97;30984210;28;96792;-64
2022/07/10 01:13:13;;;;;;;5.50;3.10;;;;;;;14.07;71.38;100280.63;30982045;28;96796;-70
2022/07/10 01:28:14;;;;;;;3.60;2.15;;;;;;;13.84;72.33;100297.66;30981002;28;96712;-68
2022/07/10 01:43:14;;;;;;;6.93;3.47;;;;;;;13.71;73.13;100301.03;30978587;28;96673;-70
2022/07/10 01:58:15;;;;;;;5.00;2.90;;;;;;;13.39;74.07;100290.75;30978228;28;96705;-64
2022/07/10 02:13:17;;;;;;;4.18;2.63;;;;;;;13.18;74.77;100295.81;30977171;28;97531;-63
2022/07/10 02:28:18;;;;;;;5.03;2.70;;;;;;;13.21;75.48;100294.59;30975830;28;96717;-64
2022/07/10 02:43:18;;;;;;;6.78;3.00;;;;;;;13.27;76.23;100298.38;30974882;28;101815;-65
2022/07/10 02:58:19;;;;;;;3.60;2.00;;;;;;;13.47;75.43;100307.53;30981785;28;96890;-67
2022/07/10 03:13:19;;;;;;;2.97;2.03;;;;;;;13.36;75.41;100299.97;30993369;28;96715;-64
2022/07/10 03:28:20;;;;;;;4.30;1.85;;;;;;;13.28;74.94;100310.75;30991312;28;96849;-65
2022/07/10 03:43:20;;;;;;;4.38;1.90;;;;;;;13.29;74.88;100297.19;30989759;28;96757;-64
2022/07/10 03:58:21;;;;;;;4.03;1.52;;;;;;;13.64;74.76;100301.97;30990056;28;97800;-65
2022/07/10 04:13:21;;;;;;;5.30;1.90;;;;;;;13.76;74.06;100305.81;30986623;28;97037;-64
2022/07/10 04:28:22;;;;;;;4.25;1.55;;;;;;;13.95;73.63;100303.56;30986204;28;100899;-64
2022/07/10 04:43:22;;;;;;;2.67;1.58;;;;;;;14.45;72.65;100309.81;30983691;28;97005;-64
2022/07/10 04:58:22;;;;;;;5.82;1.65;;;;;;;14.59;72.04;100308.06;30981781;28;96980;-69
2022/07/10 05:13:23;;;;;;;3.10;1.33;;;;;;;14.91;71.21;100294.31;30981748;28;97327;-66
2022/07/10 05:28:23;;;;;;;2.10;1.35;;;;;;;15.18;69.58;100314.91;30980180;28;97397;-65
2022/07/10 05:43:23;;;;;;;5.60;1.58;;;;;;;15.42;68.09;100314.63;30978583;28;96760;-63
2022/07/10 05:58:24;;;;;;;3.67;1.00;;;;;;;15.72;66.26;100313.31;30976687;28;96604;-64
2022/07/10 06:13:24;;;;;;;2.72;0.80;;;;;;;16.35;63.42;100306.88;30975769;28;97287;-69
2022/07/10 06:28:24;;;;;;;6.55;0.85;;;;;;;16.85;61.00;100319.06;30974338;28;97285;-70
2022/07/10 06:43:25;;;;;;;2.55;0.82;;;;;;;17.27;59.26;100324.22;30994175;28;97195;-65
2022/07/10 06:58:25;;;;;;;3.03;0.93;;;;;;;17.89;57.58;100298.47;30992725;28;97441;-64
2022/07/10 07:13:25;;;;;;;3.70;1.02;;;;;;;17.86;55.44;100311.56;30992154;28;96695;-64
2022/07/10 07:28:26;;;;;;;7.10;1.15;;;;;;;18.14;53.95;100308.53;30991430;28;97108;-63
2022/07/10 07:43:26;;;;;;;4.30;1.02;;;;;;;17.83;52.62;100317.38;30987098;28;97370;-69
2022/07/10 07:58:27;;;;;;;6.00;1.50;;;;;;;17.86;52.56;100317.75;30986571;28;96688;-64
2022/07/10 08:13:27;;;;;;;3.97;1.17;;;;;;;18.71;50.05;100310.38;30985908;28;97218;-64
2022/07/10 08:28:28;;;;;;;2.47;0.80;;;;;;;19.69;49.08;100302.50;30985733;28;96824;-66
2022/07/10 08:43:28;;;;;;;2.67;0.68;;;;;;;18.92;47.93;100303.78;30983835;28;97390;-65
2022/07/10 08:58:32;;;;;;;2.38;1.02;;;;;;;19.26;46.21;100298.88;30982645;28;96746;-69
2022/07/10 09:13:49;;;;;;;3.27;0.70;;;;;;;20.21;44.79;100310.94;30980231;28;96711;-64
2022/07/10 09:29:05;;;;;;;4.17;1.00;;;;;;;19.45;46.02;100307.75;30979567;28;97467;-67
2022/07/10 09:44:09;;;;;;;1.10;0.40;;;;;;;18.94;44.04;100312.47;30977440;28;97110;-63
2022/07/10 09:59:13;;;;;;;1.90;0.50;;;;;;;18.29;45.21;100302.81;30976148;28;97400;-63
2022/07/10 10:14:18;;;;;;;1.83;0.70;;;;;;;19.31;44.41;100311.69;30975132;28;96824;-63
2022/07/10 10:29:19;;;;;;;1.73;0.77;;;;;;;19.97;44.21;100307.34;30973964;28;96733;-64
2022/07/10 10:44:20;;;;;;;1.63;0.82;;;;;;;18.31;46.14;100298.03;30972795;28;96790;-63
2022/07/10 10:59:48;;;;;;;1.73;0.67;;;;;;;18.52;48.16;100291.44;30972342;28;97347;-65
2022/07/10 11:14:49;;;;;;;1.87;0.50;;;;;;;18.99;46.27;100290.22;30972458;28;96662;-67
2022/07/10 11:29:56;;;;;;;1.50;0.50;;;;;;;18.80;46.73;100282.06;30991798;28;96810;-63
2022/07/10 11:44:57;;;;;;;1.20;0.40;;;;;;;20.50;44.33;100265.09;30988705;28;96677;-70
2022/07/10 11:59:57;;;;;;;1.48;0.45;;;;;;;19.35;45.37;100291.28;30987899;28;97002;-69
2022/07/10 12:14:58;;;;;;;2.83;1.13;;;;;;;18.70;48.24;100300.59;30984650;28;97357;-70
2022/07/10 12:30:01;;;;;;;0.80;0.68;;;;;;;21.06;49.05;100298.06;30983704;28;97425;-71
2022/07/10 12:45:12;;;;;;;3.73;0.97;;;;;;;22.74;43.59;100297.16;30983777;28;96863;-64
2022/07/10 13:00:25;;;;;;;2.13;0.60;;;;;;;21.06;42.83;100335.19;30982285;28;96715;-71
2022/07/10 13:15:26;;;;;;;2.70;1.00;;;;;;;20.73;46.54;100323.06;30980723;28;96852;-66
2022/07/10 13:30:26;;;;;;;3.38;0.82;;;;;;;21.76;44.98;100298.16;30979040;28;96757;-69
2022/07/10 13:45:32;;;;;;;2.75;0.60;;;;;;;22.08;40.35;100289.56;30976723;28;97595;-63
2022/07/10 14:00:32;;;;;;;3.70;0.80;;;;;;;21.23;40.38;100281.13;30976393;28;96719;-64
2022/07/10 14:15:32;;;;;;;2.08;0.65;;;;;;;20.96;40.93;100279.72;30975837;28;97455;-63
2022/07/10 14:30:33;;;;;;;3.38;1.10;;;;;;;20.53;40.25;100272.78;30975260;28;96745;-63
2022/07/10 14:45:33;;;;;;;3.60;0.75;;;;;;;19.83;40.25;100309.38;30971991;28;97277;-63
2022/07/10 15:00:34;;;;;;;1.27;0.60;;;;;;;20.34;39.67;100300.97;30988514;28;96722;-63
2022/07/10 15:15:34;;;;;;;3.00;0.80;;;;;;;20.08;40.13;100317.38;30991378;28;96747;-64
2022/07/10 15:30:36;;;;;;;3.40;1.10;;;;;;;19.36;42.47;100325.34;30989479;28;105041;-63
2022/07/10 15:45:36;;;;;;;;;;;;;;;19.44;43.19;100322.34;30988209;28;97863;-70
2022/07/10 16:00:36;;;;;;;3.55;0.90;;;;;;;19.49;43.16;100311.69;30987705;28;97207;-67
2022/07/10 16:15:37;;;;;;;3.10;0.90;;;;;;;19.22;43.53;100313.88;30986009;28;97588;-65
2022/07/10 16:30:38;;;;;;;4.57;0.90;;;;;;;19.16;43.40;100315.56;30983739;28;97485;-64
2022/07/10 16:45:40;;;;;;;1.45;0.50;;;;;;;19.08;42.75;100315.84;30981537;28;96733;-63
2022/07/10 17:00:40;;;;;;;2.97;0.80;;;;;;;18.69;43.26;100302.50;30981177;28;96703;-66
2022/07/10 17:15:40;;;;;;;3.80;1.60;;;;;;;18.31;43.76;100318.78;30977983;28;96640;-63
2022/07/10 17:30:41;;;;;;;5.38;1.05;;;;;;;18.10;44.57;100329.69;30978470;28;96838;-63
2022/07/10 17:45:41;;;;;;;3.45;1.00;;;;;;;17.95;44.76;100331.84;30976698;28;96760;-65
2022/07/10 18:00:42;;;;;;;2.30;0.90;;;;;;;17.74;45.12;100338.34;30976522;28;96782;-63
2022/07/10 18:15:42;;;;;;;5.90;0.98;;;;;;;17.51;45.66;100337.00;30974022;28;106921;-64
2022/07/10 18:30:44;;;;;;;4.82;1.23;;;;;;;17.36;46.08;100344.47;30981904;28;97265;-63
2022/07/10 18:45:44;;;;;;;5.37;1.13;;;;;;;17.27;46.32;100349.28;30992643;28;96768;-61
2022/07/10 19:00:45;;;;;;;11.02;2.63;;;;;;;17.14;47.15;100347.44;30980659;28;101775;-61
2022/07/10 19:15:45;;;;;;;4.25;1.45;;;;;;;16.90;47.74;100362.38;30942235;28;97334;-61
2022/07/10 19:30:46;;;;;;;3.95;1.30;;;;;;;16.69;48.44;100377.66;30947342;28;97593;-63
2022/07/10 19:45:46;;;;;;;4.43;1.17;;;;;;;16.62;49.11;100386.72;30941875;28;97214;-62
2022/07/10 20:00:47;;;;;;;4.47;1.60;;;;;;;16.54;49.47;100423.56;30965875;28;97511;-62
2022/07/10 20:15:47;;;;;;;6.57;1.40;;;;;;;16.30;51.45;100441.06;30985110;28;97227;-62
2022/07/10 20:30:48;;;;;;;6.85;1.20;;;;;;;15.80;53.97;100432.38;30983357;28;96792;-62
2022/07/10 20:45:48;;;;;;;5.95;1.40;;;;;;;15.30;57.07;100427.09;30981169;28;96743;-62
2022/07/10 21:00:48;;;;;;;7.93;1.80;;;;;;;15.08;59.50;100424.44;30965496;28;96778;-63
2022/07/10 21:15:49;;;;;;;7.28;1.88;;;;;;;14.64;60.97;100418.28;30952353;28;100984;-66
2022/07/10 21:30:49;;;;;;;4.25;1.73;;;;;;;14.42;63.11;100419.25;30879035;28;96724;-66
2022/07/10 21:45:49;;;;;;;7.15;2.05;;;;;;;14.18;64.54;100414.06;30916321;28;97089;-62
2022/07/10 22:00:50;;;;;;;6.03;1.90;;;;;;;14.14;65.71;100415.44;30938142;28;97105;-63
2022/07/10 22:15:50;;;;;;;6.45;1.60;;;;;;;14.12;67.04;100417.50;30974378;28;97818;-66
2022/07/10 22:46:10;;;;;;;5.33;1.77;;;;;;;14.04;67.46;100431.00;30973765;28;96948;-61
2022/07/10 23:01:12;;;;;;;6.50;2.13;;;;;;;14.02;68.30;100424.97;30972121;28;96709;-63
2022/07/10 23:16:12;;;;;;;7.43;2.00;;;;;;;14.05;68.37;100419.25;30980148;28;97107;-62
2022/07/10 23:31:12;;;;;;;4.22;1.52;;;;;;;14.11;68.27;100412.34;30990727;28;100091;-62
2022/07/10 23:46:13;;;;;;;4.13;1.60;;;;;;;14.16;68.13;100404.53;30989468;28;96777;-62
